createdAt,value
2023-01-22T00:00:01.454Z,20
2023-01-22T00:01:02.069Z,19
2023-01-22T00:02:02.002Z,21
2023-01-22T00:03:01.480Z,20
2023-01-22T00:04:01.653Z,18
2023-01-22T00:05:02.476Z,18
2023-01-22T00:06:01.463Z,19
2023-01-22T00:07:01.459Z,19
2023-01-22T00:08:01.779Z,17
2023-01-22T00:09:02.336Z,18
2023-01-22T00:10:01.572Z,18
2023-01-22T00:11:01.630Z,18
2023-01-22T00:12:01.550Z,21
2023-01-22T00:13:01.546Z,17
2023-01-22T00:14:07.003Z,18
2023-01-22T00:15:01.466Z,17
2023-01-22T00:16:01.466Z,18
2023-01-22T00:17:01.959Z,17
2023-01-22T00:18:02.032Z,18
2023-01-22T00:19:01.454Z,17
2023-01-22T00:20:01.514Z,18
2023-01-22T00:21:01.911Z,17
2023-01-22T00:22:01.469Z,17
2023-01-22T00:23:01.437Z,18
2023-01-22T00:24:01.441Z,16
2023-01-22T00:25:01.838Z,18
2023-01-22T00:26:01.439Z,18
2023-01-22T00:27:02.046Z,17
2023-01-22T00:28:02.303Z,17
2023-01-22T00:29:01.494Z,17
2023-01-22T00:30:02.229Z,17
2023-01-22T00:31:02.564Z,17
2023-01-22T00:32:02.349Z,17
2023-01-22T00:33:01.966Z,17
2023-01-22T00:34:01.597Z,17
2023-01-22T00:35:02.021Z,18
2023-01-22T00:36:01.941Z,18
2023-01-22T00:37:01.930Z,19
2023-01-22T00:38:01.500Z,18
2023-01-22T00:39:01.516Z,19
2023-01-22T00:40:02.447Z,18
2023-01-22T00:41:02.162Z,16
2023-01-22T00:42:02.178Z,17
2023-01-22T00:43:02.718Z,17
2023-01-22T00:44:01.975Z,18
2023-01-22T00:45:03.024Z,17
2023-01-22T00:46:01.431Z,18
2023-01-22T00:47:01.901Z,18
2023-01-22T00:48:01.496Z,18
2023-01-22T00:49:03.318Z,18
2023-01-22T00:50:01.982Z,17
2023-01-22T00:51:01.832Z,19
2023-01-22T00:52:01.433Z,18
2023-01-22T00:53:02.195Z,17
2023-01-22T00:54:01.434Z,19
2023-01-22T00:55:01.424Z,19
2023-01-22T00:56:01.581Z,18
2023-01-22T00:57:01.444Z,18
2023-01-22T00:58:01.440Z,19
2023-01-22T00:59:01.800Z,17
2023-01-22T01:00:02.131Z,20
2023-01-22T01:01:01.509Z,18
2023-01-22T01:02:02.348Z,19
2023-01-22T01:03:01.452Z,19
2023-01-22T01:04:01.523Z,18
2023-01-22T01:05:02.254Z,19
2023-01-22T01:06:01.858Z,18
2023-01-22T01:07:02.046Z,18
2023-01-22T01:08:01.739Z,18
2023-01-22T01:09:01.629Z,18
2023-01-22T01:10:01.638Z,17
2023-01-22T01:11:01.479Z,19
2023-01-22T01:12:01.483Z,19
2023-01-22T01:13:01.619Z,18
2023-01-22T01:14:01.418Z,19
2023-01-22T01:15:00.761Z,19
2023-01-22T01:16:02.518Z,18
2023-01-22T01:17:01.643Z,18
2023-01-22T01:18:01.871Z,20
2023-01-22T01:19:02.234Z,18
2023-01-22T01:20:01.524Z,17
2023-01-22T01:21:01.548Z,19
2023-01-22T01:22:01.965Z,20
2023-01-22T01:23:01.431Z,19
2023-01-22T01:24:01.486Z,18
2023-01-22T01:25:01.887Z,19
2023-01-22T01:26:01.428Z,19
2023-01-22T01:27:01.468Z,19
2023-01-22T01:28:01.410Z,20
2023-01-22T01:29:01.556Z,19
2023-01-22T01:30:01.471Z,20
2023-01-22T01:31:01.919Z,19
2023-01-22T01:32:01.618Z,19
2023-01-22T01:33:01.422Z,18
2023-01-22T01:34:01.965Z,19
2023-01-22T01:35:01.714Z,18
2023-01-22T01:36:01.434Z,19
2023-01-22T01:37:01.512Z,21
2023-01-22T01:38:00.838Z,19
2023-01-22T01:39:02.203Z,19
2023-01-22T01:40:01.497Z,19
2023-01-22T01:41:01.780Z,19
2023-01-22T01:42:01.733Z,19
2023-01-22T01:43:01.426Z,19
2023-01-22T01:44:01.561Z,18
2023-01-22T01:45:01.834Z,19
2023-01-22T01:46:01.493Z,19
2023-01-22T01:47:01.932Z,18
2023-01-22T01:48:01.415Z,17
2023-01-22T01:49:01.425Z,18
2023-01-22T01:50:01.462Z,17
2023-01-22T01:51:01.552Z,17
2023-01-22T01:52:02.095Z,19
2023-01-22T01:53:01.755Z,17
2023-01-22T01:54:02.088Z,17
2023-01-22T01:55:01.510Z,18
2023-01-22T01:56:01.430Z,18
2023-01-22T01:57:01.430Z,17
2023-01-22T01:58:01.408Z,17
2023-01-22T01:59:02.222Z,18
2023-01-22T02:00:02.084Z,17
2023-01-22T02:01:01.565Z,17
2023-01-22T02:02:01.612Z,17
2023-01-22T02:03:01.502Z,17
2023-01-22T02:04:01.443Z,17
2023-01-22T02:05:01.431Z,17
2023-01-22T02:06:01.407Z,17
2023-01-22T02:07:01.413Z,16
2023-01-22T02:08:01.406Z,17
2023-01-22T02:09:01.415Z,17
2023-01-22T02:10:01.618Z,16
2023-01-22T02:11:01.764Z,17
2023-01-22T02:12:01.491Z,17
2023-01-22T02:13:01.447Z,16
2023-01-22T02:14:01.415Z,17
2023-01-22T02:15:01.556Z,17
2023-01-22T02:16:01.568Z,17
2023-01-22T02:17:01.421Z,18
2023-01-22T02:18:01.409Z,16
2023-01-22T02:19:01.599Z,17
2023-01-22T02:20:01.849Z,17
2023-01-22T02:21:01.496Z,15
2023-01-22T02:22:02.335Z,17
2023-01-22T02:23:01.409Z,16
2023-01-22T02:24:01.436Z,17
2023-01-22T02:25:01.857Z,17
2023-01-22T02:26:02.006Z,16
2023-01-22T02:27:01.637Z,15
2023-01-22T02:28:01.411Z,17
2023-01-22T02:29:02.200Z,17
2023-01-22T02:30:01.930Z,15
2023-01-22T02:31:01.500Z,15
2023-01-22T02:32:02.135Z,16
2023-01-22T02:33:01.891Z,16
2023-01-22T02:34:01.484Z,15
2023-01-22T02:35:01.427Z,14
2023-01-22T02:36:01.982Z,14
2023-01-22T02:37:02.117Z,15
2023-01-22T02:38:01.503Z,14
2023-01-22T02:39:01.427Z,15
2023-01-22T02:40:01.439Z,16
2023-01-22T02:41:01.401Z,15
2023-01-22T02:42:02.185Z,15
2023-01-22T02:43:02.367Z,14
2023-01-22T02:44:01.918Z,14
2023-01-22T02:45:00.466Z,15
2023-01-22T02:46:01.702Z,15
2023-01-22T02:47:01.476Z,14
2023-01-22T02:48:01.840Z,14
2023-01-22T02:49:01.927Z,14
2023-01-22T02:50:01.435Z,14
2023-01-22T02:51:01.450Z,14
2023-01-22T02:52:02.261Z,13
2023-01-22T02:53:01.425Z,13
2023-01-22T02:54:01.431Z,14
2023-01-22T02:55:01.835Z,13
2023-01-22T02:56:01.442Z,14
2023-01-22T02:57:01.743Z,12
2023-01-22T02:58:01.600Z,14
2023-01-22T02:59:01.689Z,14
2023-01-22T03:00:01.778Z,13
2023-01-22T03:01:01.784Z,13
2023-01-22T03:02:01.473Z,14
2023-01-22T03:03:01.412Z,13
2023-01-22T03:04:02.001Z,13
2023-01-22T03:05:01.423Z,14
2023-01-22T03:06:02.391Z,13
2023-01-22T03:07:02.062Z,13
2023-01-22T03:08:01.436Z,12
2023-01-22T03:09:01.826Z,13
2023-01-22T03:10:02.052Z,13
2023-01-22T03:11:01.974Z,12
2023-01-22T03:12:02.025Z,12
2023-01-22T03:13:01.499Z,13
2023-01-22T03:14:01.903Z,13
2023-01-22T03:15:02.267Z,12
2023-01-22T03:16:02.122Z,12
2023-01-22T03:17:01.534Z,13
2023-01-22T03:18:01.894Z,12
2023-01-22T03:19:01.408Z,12
2023-01-22T03:20:01.425Z,12
2023-01-22T03:21:01.471Z,13
2023-01-22T03:22:02.255Z,12
2023-01-22T03:23:01.398Z,11
2023-01-22T03:24:01.426Z,12
2023-01-22T03:25:01.613Z,12
2023-01-22T03:26:01.466Z,12
2023-01-22T03:27:01.395Z,12
2023-01-22T03:28:01.942Z,12
2023-01-22T03:29:01.824Z,11
2023-01-22T03:30:01.536Z,12
2023-01-22T03:31:01.801Z,13
2023-01-22T03:32:01.578Z,13
2023-01-22T03:33:02.050Z,12
2023-01-22T03:34:01.531Z,12
2023-01-22T03:35:02.340Z,13
2023-01-22T03:36:01.879Z,12
2023-01-22T03:37:01.676Z,12
2023-01-22T03:38:01.739Z,12
2023-01-22T03:39:02.286Z,12
2023-01-22T03:40:01.943Z,11
2023-01-22T03:41:01.738Z,12
2023-01-22T03:42:01.986Z,12
2023-01-22T03:43:01.408Z,11
2023-01-22T03:44:01.406Z,11
2023-01-22T03:45:01.561Z,12
2023-01-22T03:46:02.062Z,11
2023-01-22T03:47:01.465Z,11
2023-01-22T03:48:01.586Z,12
2023-01-22T03:49:02.010Z,12
2023-01-22T03:50:02.068Z,10
2023-01-22T03:51:01.679Z,11
2023-01-22T03:52:00.228Z,11
2023-01-22T03:53:02.176Z,10
2023-01-22T03:54:02.192Z,11
2023-01-22T03:55:01.436Z,12
2023-01-22T03:56:01.829Z,10
2023-01-22T03:57:01.432Z,11
2023-01-22T03:58:02.288Z,11
2023-01-22T03:59:01.394Z,10
2023-01-22T04:00:02.107Z,11
2023-01-22T04:01:01.739Z,11
2023-01-22T04:02:01.537Z,10
2023-01-22T04:03:02.146Z,11
2023-01-22T04:04:02.227Z,10
2023-01-22T04:05:02.184Z,11
2023-01-22T04:06:01.410Z,10
2023-01-22T04:07:01.386Z,11
2023-01-22T04:08:02.015Z,10
2023-01-22T04:09:01.861Z,10
2023-01-22T04:10:01.466Z,11
2023-01-22T04:15:20.404Z,10
2023-01-22T04:16:01.447Z,10
2023-01-22T04:17:01.406Z,10
2023-01-22T04:18:01.983Z,9
2023-01-22T04:19:01.849Z,10
2023-01-22T04:20:02.184Z,10
2023-01-22T04:21:01.903Z,10
2023-01-22T04:22:02.039Z,9
2023-01-22T04:23:01.430Z,9
2023-01-22T04:24:01.399Z,10
2023-01-22T04:25:01.399Z,9
2023-01-22T04:26:01.959Z,10
2023-01-22T04:27:01.801Z,9
2023-01-22T04:28:01.445Z,9
2023-01-22T04:29:01.418Z,10
2023-01-22T04:30:02.069Z,10
2023-01-22T04:31:01.630Z,9
2023-01-22T04:32:02.172Z,9
2023-01-22T04:33:02.120Z,9
2023-01-22T04:34:01.771Z,9
2023-01-22T04:35:01.402Z,10
2023-01-22T04:36:02.154Z,10
2023-01-22T04:37:01.404Z,10
2023-01-22T04:38:01.485Z,10
2023-01-22T04:39:01.442Z,9
2023-01-22T04:40:01.475Z,9
2023-01-22T04:41:02.184Z,9
2023-01-22T04:42:01.912Z,9
2023-01-22T04:43:01.839Z,10
2023-01-22T04:44:01.398Z,9
2023-01-22T04:45:01.913Z,10
2023-01-22T04:46:01.518Z,8
2023-01-22T04:47:02.009Z,9
2023-01-22T04:48:01.458Z,9
2023-01-22T04:49:01.472Z,10
2023-01-22T04:50:01.544Z,9
2023-01-22T04:51:01.449Z,9
2023-01-22T04:52:01.829Z,8
2023-01-22T04:53:01.418Z,9
2023-01-22T04:54:02.161Z,10
2023-01-22T04:55:01.777Z,10
2023-01-22T04:56:01.414Z,10
2023-01-22T04:57:01.504Z,9
2023-01-22T04:58:01.440Z,9
2023-01-22T04:59:00.535Z,9
2023-01-22T05:00:01.390Z,10
2023-01-22T05:01:02.289Z,10
2023-01-22T05:02:01.587Z,9
2023-01-22T05:03:01.385Z,9
2023-01-22T05:04:01.861Z,9
2023-01-22T05:05:01.980Z,10
2023-01-22T05:06:01.468Z,10
2023-01-22T05:07:01.429Z,10
2023-01-22T05:08:01.968Z,9
2023-01-22T05:09:01.398Z,9
2023-01-22T05:10:01.548Z,10
2023-01-22T05:11:02.123Z,10
2023-01-22T05:12:01.655Z,10
2023-01-22T05:13:01.546Z,10
2023-01-22T05:14:01.457Z,10
2023-01-22T05:15:02.941Z,9
2023-01-22T05:16:01.478Z,11
2023-01-22T05:17:01.414Z,10
2023-01-22T05:18:02.015Z,10
2023-01-22T05:19:01.749Z,10
2023-01-22T05:20:01.694Z,11
2023-01-22T05:21:02.072Z,10
2023-01-22T05:22:01.963Z,10
2023-01-22T05:23:00.766Z,10
2023-01-22T05:24:01.657Z,10
2023-01-22T05:25:01.387Z,11
2023-01-22T05:26:01.904Z,12
2023-01-22T05:27:02.140Z,11
2023-01-22T05:28:02.090Z,11
2023-01-22T05:29:02.346Z,10
2023-01-22T05:30:01.411Z,11
2023-01-22T05:31:01.819Z,11
2023-01-22T05:32:01.610Z,11
2023-01-22T05:33:01.949Z,11
2023-01-22T05:34:01.399Z,12
2023-01-22T05:35:01.793Z,11
2023-01-22T05:36:01.693Z,11
2023-01-22T05:37:01.715Z,12
2023-01-22T05:38:01.646Z,12
2023-01-22T05:39:01.754Z,12
2023-01-22T05:40:01.380Z,11
2023-01-22T05:41:02.377Z,11
2023-01-22T05:42:01.796Z,12
2023-01-22T05:43:01.396Z,10
2023-01-22T05:44:01.378Z,11
2023-01-22T05:45:01.379Z,12
2023-01-22T05:46:01.507Z,11
2023-01-22T05:47:01.822Z,12
2023-01-22T05:48:01.415Z,11
2023-01-22T05:49:02.115Z,12
2023-01-22T05:50:01.420Z,12
2023-01-22T05:51:01.433Z,12
2023-01-22T05:52:01.557Z,12
2023-01-22T05:53:01.583Z,12
2023-01-22T05:54:01.395Z,12
2023-01-22T05:55:01.643Z,13
2023-01-22T05:56:01.618Z,12
2023-01-22T05:57:01.381Z,12
2023-01-22T05:58:01.535Z,10
2023-01-22T05:59:02.209Z,12
2023-01-22T06:00:02.274Z,12
2023-01-22T06:01:01.387Z,11
2023-01-22T06:02:01.710Z,12
2023-01-22T06:03:01.798Z,12
2023-01-22T06:04:01.382Z,13
2023-01-22T06:05:01.430Z,13
2023-01-22T06:06:02.274Z,11
2023-01-22T06:07:00.491Z,11
2023-01-22T06:08:01.408Z,12
2023-01-22T06:09:03.348Z,11
2023-01-22T06:10:01.829Z,11
2023-01-22T06:11:02.167Z,12
2023-01-22T06:12:02.013Z,12
2023-01-22T06:13:02.432Z,11
2023-01-22T06:14:01.372Z,12
2023-01-22T06:15:01.555Z,12
2023-01-22T06:16:01.483Z,12
2023-01-22T06:17:01.693Z,12
2023-01-22T06:18:01.382Z,13
2023-01-22T06:19:02.250Z,12
2023-01-22T06:20:01.894Z,12
2023-01-22T06:21:01.850Z,12
2023-01-22T06:22:01.387Z,12
2023-01-22T06:23:01.494Z,13
2023-01-22T06:24:02.296Z,12
2023-01-22T06:25:01.857Z,14
2023-01-22T06:26:01.379Z,11
2023-01-22T06:27:01.410Z,13
2023-01-22T06:28:01.386Z,14
2023-01-22T06:29:00.941Z,14
2023-01-22T06:30:01.642Z,13
2023-01-22T06:31:01.543Z,13
2023-01-22T06:32:01.376Z,13
2023-01-22T06:33:01.529Z,13
2023-01-22T06:34:01.382Z,14
2023-01-22T06:35:01.837Z,14
2023-01-22T06:36:01.376Z,14
2023-01-22T06:37:01.377Z,14
2023-01-22T06:38:01.870Z,14
2023-01-22T06:39:01.765Z,13
2023-01-22T06:40:02.059Z,13
2023-01-22T06:41:01.460Z,13
2023-01-22T06:42:01.825Z,14
2023-01-22T06:43:01.953Z,12
2023-01-22T06:44:01.827Z,12
2023-01-22T06:45:02.123Z,11
2023-01-22T06:46:01.659Z,13
2023-01-22T06:47:01.373Z,12
2023-01-22T06:48:01.396Z,12
2023-01-22T06:49:01.765Z,13
2023-01-22T06:50:01.467Z,13
2023-01-22T06:51:01.520Z,13
2023-01-22T06:52:01.376Z,12
2023-01-22T06:53:02.305Z,14
2023-01-22T06:54:01.881Z,13
2023-01-22T06:55:01.370Z,13
2023-01-22T06:56:01.383Z,12
2023-01-22T06:57:01.988Z,11
2023-01-22T06:58:01.615Z,12
2023-01-22T06:59:01.407Z,12
2023-01-22T07:00:01.367Z,12
2023-01-22T07:01:01.386Z,11
2023-01-22T07:02:01.820Z,11
2023-01-22T07:03:01.849Z,12
2023-01-22T07:04:01.431Z,11
2023-01-22T07:05:02.326Z,10
2023-01-22T07:06:02.373Z,12
2023-01-22T07:07:01.480Z,12
2023-01-22T07:08:01.378Z,11
2023-01-22T07:09:01.807Z,12
2023-01-22T07:10:01.353Z,12
2023-01-22T07:11:01.367Z,11
2023-01-22T07:12:01.379Z,11
2023-01-22T07:13:02.409Z,11
2023-01-22T07:14:00.196Z,11
2023-01-22T07:15:01.454Z,11
2023-01-22T07:16:01.755Z,10
2023-01-22T07:17:01.856Z,11
2023-01-22T07:18:02.238Z,10
2023-01-22T07:19:01.661Z,10
2023-01-22T07:20:01.639Z,11
2023-01-22T07:21:02.084Z,10
2023-01-22T07:22:02.315Z,11
2023-01-22T07:23:01.392Z,11
2023-01-22T07:24:01.830Z,10
2023-01-22T07:25:02.333Z,10
2023-01-22T07:26:01.391Z,11
2023-01-22T07:27:01.936Z,10
2023-01-22T07:28:02.056Z,10
2023-01-22T07:29:01.473Z,9
2023-01-22T07:30:01.358Z,10
2023-01-22T07:31:01.921Z,10
2023-01-22T07:32:01.640Z,10
2023-01-22T07:33:01.695Z,10
2023-01-22T07:34:02.202Z,10
2023-01-22T07:35:01.878Z,10
2023-01-22T07:36:01.708Z,10
2023-01-22T07:37:01.779Z,10
2023-01-22T07:38:02.001Z,9
2023-01-22T07:39:02.151Z,9
2023-01-22T07:40:01.933Z,10
2023-01-22T07:41:01.385Z,10
2023-01-22T07:42:01.668Z,10
2023-01-22T07:43:01.352Z,10
2023-01-22T07:44:02.104Z,11
2023-01-22T07:45:02.057Z,10
2023-01-22T07:46:01.833Z,10
2023-01-22T07:47:01.378Z,11
2023-01-22T07:48:01.946Z,10
2023-01-22T07:49:01.365Z,10
2023-01-22T07:50:02.057Z,10
2023-01-22T07:51:01.677Z,11
2023-01-22T07:52:01.369Z,10
2023-01-22T07:53:01.826Z,11
2023-01-22T07:54:01.970Z,10
2023-01-22T07:55:02.303Z,12
2023-01-22T07:56:01.491Z,12
2023-01-22T07:57:01.358Z,11
2023-01-22T07:58:01.372Z,10
2023-01-22T07:59:01.436Z,11
2023-01-22T08:00:01.708Z,11
2023-01-22T08:01:01.929Z,11
2023-01-22T08:02:03.451Z,10
2023-01-22T08:03:01.789Z,11
2023-01-22T08:04:01.377Z,11
2023-01-22T08:05:02.323Z,10
2023-01-22T08:06:01.556Z,10
2023-01-22T08:07:01.415Z,11
2023-01-22T08:08:02.007Z,10
2023-01-22T08:09:02.020Z,10
2023-01-22T08:10:01.355Z,11
2023-01-22T08:11:01.830Z,10
2023-01-22T08:12:01.784Z,10
2023-01-22T08:13:01.812Z,10
2023-01-22T08:14:01.361Z,11
2023-01-22T08:15:02.217Z,10
2023-01-22T08:16:01.528Z,9
2023-01-22T08:17:01.760Z,10
2023-01-22T08:18:01.890Z,9
2023-01-22T08:19:01.821Z,9
2023-01-22T08:20:01.953Z,10
2023-01-22T08:21:00.864Z,10
2023-01-22T08:22:01.360Z,10
2023-01-22T08:23:02.254Z,10
2023-01-22T08:24:01.934Z,9
2023-01-22T08:25:01.907Z,9
2023-01-22T08:26:01.998Z,9
2023-01-22T08:27:03.628Z,10
2023-01-22T08:28:01.354Z,10
2023-01-22T08:29:05.941Z,10
2023-01-22T08:30:01.365Z,9
2023-01-22T08:31:02.082Z,9
2023-01-22T08:32:01.632Z,10
2023-01-22T08:33:01.568Z,9
2023-01-22T08:34:01.489Z,9
2023-01-22T08:35:01.809Z,10
2023-01-22T08:36:01.373Z,9
2023-01-22T08:37:01.373Z,10
2023-01-22T08:38:01.747Z,9
2023-01-22T08:39:01.364Z,9
2023-01-22T08:40:02.152Z,9
2023-01-22T08:41:01.843Z,9
2023-01-22T08:42:01.469Z,8
2023-01-22T08:43:01.433Z,8
2023-01-22T08:44:01.574Z,9
2023-01-22T08:45:02.257Z,9
2023-01-22T08:46:01.420Z,9
2023-01-22T08:47:01.647Z,9
2023-01-22T08:48:01.378Z,11
2023-01-22T08:49:01.818Z,9
2023-01-22T08:50:01.927Z,8
2023-01-22T08:51:02.310Z,8
2023-01-22T08:52:01.911Z,8
2023-01-22T08:53:01.349Z,9
2023-01-22T08:54:01.356Z,9
2023-01-22T08:55:02.126Z,8
2023-01-22T08:56:01.906Z,8
2023-01-22T08:57:03.239Z,8
2023-01-22T08:58:01.350Z,8
2023-01-22T08:59:01.995Z,8
2023-01-22T09:00:01.935Z,8
2023-01-22T09:01:03.702Z,8
2023-01-22T09:02:01.769Z,8
2023-01-22T09:03:01.548Z,8
2023-01-22T09:04:01.845Z,8
2023-01-22T09:05:01.344Z,8
2023-01-22T09:06:01.354Z,8
2023-01-22T09:07:01.545Z,7
2023-01-22T09:08:01.421Z,8
2023-01-22T09:09:02.199Z,7
2023-01-22T09:10:01.358Z,8
2023-01-22T09:11:01.905Z,7
2023-01-22T09:12:01.601Z,8
2023-01-22T09:13:01.704Z,7
2023-01-22T09:14:01.723Z,7
2023-01-22T09:15:01.536Z,7
2023-01-22T09:16:01.525Z,8
2023-01-22T09:17:02.081Z,6
2023-01-22T09:18:01.475Z,7
2023-01-22T09:19:01.500Z,8
2023-01-22T09:20:01.869Z,8
2023-01-22T09:21:01.928Z,7
2023-01-22T09:22:01.344Z,7
2023-01-22T09:23:01.903Z,7
2023-01-22T09:24:01.892Z,6
2023-01-22T09:25:01.446Z,6
2023-01-22T09:26:02.080Z,7
2023-01-22T09:27:01.352Z,7
2023-01-22T09:28:00.227Z,6
2023-01-22T09:29:01.818Z,6
2023-01-22T09:30:01.367Z,6
2023-01-22T09:31:01.381Z,6
2023-01-22T09:32:01.992Z,6
2023-01-22T09:33:01.981Z,7
2023-01-22T09:34:01.965Z,6
2023-01-22T09:35:01.436Z,6
2023-01-22T09:36:02.073Z,7
2023-01-22T09:37:01.340Z,6
2023-01-22T09:38:01.751Z,6
2023-01-22T09:39:01.937Z,6
2023-01-22T09:40:01.346Z,6
2023-01-22T09:41:01.340Z,6
2023-01-22T09:42:01.459Z,6
2023-01-22T09:43:02.266Z,6
2023-01-22T09:44:01.458Z,6
2023-01-22T09:45:01.881Z,6
2023-01-22T09:46:02.293Z,6
2023-01-22T09:47:02.030Z,6
2023-01-22T09:48:01.372Z,6
2023-01-22T09:49:01.374Z,6
2023-01-22T09:50:01.351Z,6
2023-01-22T09:51:01.869Z,6
2023-01-22T09:52:03.156Z,8
2023-01-22T09:53:02.098Z,8
2023-01-22T09:54:02.021Z,8
2023-01-22T09:55:02.144Z,7
2023-01-22T09:56:01.344Z,7
2023-01-22T09:57:02.342Z,7
2023-01-22T09:58:01.359Z,8
2023-01-22T09:59:01.376Z,8
2023-01-22T10:00:01.872Z,8
2023-01-22T10:01:02.195Z,9
2023-01-22T10:02:01.822Z,8
2023-01-22T10:03:01.830Z,7
2023-01-22T10:04:01.908Z,9
2023-01-22T10:05:02.103Z,9
2023-01-22T10:06:02.205Z,9
2023-01-22T10:07:02.040Z,11
2023-01-22T10:08:01.425Z,14
2023-01-22T10:09:02.082Z,11
2023-01-22T10:10:01.340Z,10
2023-01-22T10:11:01.352Z,10
2023-01-22T10:12:01.339Z,10
2023-01-22T10:13:01.866Z,10
2023-01-22T10:14:01.670Z,10
2023-01-22T10:15:01.697Z,10
2023-01-22T10:16:01.347Z,10
2023-01-22T10:17:02.215Z,10
2023-01-22T10:18:01.373Z,9
2023-01-22T10:19:02.228Z,10
2023-01-22T10:20:01.784Z,10
2023-01-22T10:21:01.341Z,9
2023-01-22T10:22:01.911Z,9
2023-01-22T10:23:01.813Z,8
2023-01-22T10:24:01.889Z,8
2023-01-22T10:25:01.914Z,9
2023-01-22T10:26:01.421Z,9
2023-01-22T10:27:03.165Z,9
2023-01-22T10:28:02.113Z,8
2023-01-22T10:29:01.339Z,9
2023-01-22T10:30:01.750Z,8
2023-01-22T10:31:01.619Z,8
2023-01-22T10:32:01.728Z,8
2023-01-22T10:33:01.839Z,9
2023-01-22T10:34:01.907Z,10
2023-01-22T10:35:00.498Z,10
2023-01-22T10:36:01.326Z,9
2023-01-22T10:37:01.364Z,9
2023-01-22T10:38:02.288Z,8
2023-01-22T10:39:01.810Z,7
2023-01-22T10:40:01.387Z,7
2023-01-22T10:41:02.043Z,7
2023-01-22T10:42:02.108Z,7
2023-01-22T10:43:01.395Z,7
2023-01-22T10:44:01.422Z,8
2023-01-22T10:45:01.931Z,7
2023-01-22T10:46:01.915Z,8
2023-01-22T10:47:01.645Z,9
2023-01-22T10:48:01.328Z,9
2023-01-22T10:49:01.917Z,8
2023-01-22T10:50:03.442Z,8
2023-01-22T10:51:02.212Z,8
2023-01-22T10:52:02.001Z,8
2023-01-22T10:53:01.393Z,8
2023-01-22T10:54:01.333Z,7
2023-01-22T10:55:01.374Z,8
2023-01-22T10:56:01.984Z,8
2023-01-22T10:57:02.035Z,8
2023-01-22T10:58:01.332Z,9
2023-01-22T10:59:01.337Z,10
2023-01-22T11:00:02.206Z,10
2023-01-22T11:01:01.462Z,11
2023-01-22T11:02:01.382Z,10
2023-01-22T11:03:01.690Z,9
2023-01-22T11:04:01.363Z,8
2023-01-22T11:05:01.695Z,10
2023-01-22T11:06:01.328Z,10
2023-01-22T11:07:01.962Z,10
2023-01-22T11:08:01.603Z,11
2023-01-22T11:09:01.611Z,10
2023-01-22T11:10:01.389Z,10
2023-01-22T11:11:01.970Z,10
2023-01-22T11:12:01.333Z,10
2023-01-22T11:13:01.986Z,10
2023-01-22T11:14:01.898Z,10
2023-01-22T11:15:01.812Z,10
2023-01-22T11:16:01.430Z,10
2023-01-22T11:17:01.462Z,10
2023-01-22T11:18:01.490Z,11
2023-01-22T11:19:01.598Z,10
2023-01-22T11:20:02.222Z,10
2023-01-22T11:22:01.869Z,10
2023-01-22T11:23:01.332Z,9
2023-01-22T11:24:02.152Z,10
2023-01-22T11:25:01.796Z,9
2023-01-22T11:26:01.746Z,9
2023-01-22T11:27:02.155Z,9
2023-01-22T11:28:01.325Z,8
2023-01-22T11:29:01.333Z,9
2023-01-22T11:30:01.338Z,11
2023-01-22T11:31:01.936Z,11
2023-01-22T11:32:03.781Z,12
2023-01-22T11:33:01.344Z,10
2023-01-22T11:34:01.348Z,10
2023-01-22T11:35:01.971Z,8
2023-01-22T11:36:01.388Z,11
2023-01-22T11:37:01.321Z,12
2023-01-22T11:38:01.398Z,12
2023-01-22T11:39:01.805Z,9
2023-01-22T11:40:01.413Z,9
2023-01-22T11:41:01.353Z,8
2023-01-22T11:42:01.319Z,9
2023-01-22T11:43:01.327Z,10
2023-01-22T11:44:01.424Z,10
2023-01-22T11:45:01.329Z,11
2023-01-22T11:46:01.394Z,10
2023-01-22T11:47:01.328Z,12
2023-01-22T11:48:01.354Z,11
2023-01-22T11:49:01.609Z,13
2023-01-22T11:50:01.323Z,13
2023-01-22T11:51:01.616Z,10
2023-01-22T11:52:01.415Z,10
2023-01-22T11:53:01.415Z,10
2023-01-22T11:54:01.342Z,8
2023-01-22T11:55:01.390Z,9
2023-01-22T11:56:01.323Z,8
2023-01-22T11:57:02.114Z,9
2023-01-22T11:58:01.316Z,9
2023-01-22T11:59:01.676Z,17
2023-01-22T12:00:01.317Z,11
2023-01-22T12:01:01.854Z,14
2023-01-22T12:02:02.015Z,10
2023-01-22T12:03:01.513Z,10
2023-01-22T12:04:01.350Z,9
2023-01-22T12:05:01.965Z,9
2023-01-22T12:06:01.378Z,9
2023-01-22T12:07:01.751Z,8
2023-01-22T12:08:01.360Z,8
2023-01-22T12:09:01.397Z,9
2023-01-22T12:10:01.420Z,9
2023-01-22T12:11:02.040Z,9
2023-01-22T12:12:01.402Z,8
2023-01-22T12:13:01.323Z,8
2023-01-22T12:14:01.549Z,8
2023-01-22T12:15:01.332Z,8
2023-01-22T12:16:04.072Z,9
2023-01-22T12:17:01.336Z,7
2023-01-22T12:18:01.793Z,8
2023-01-22T12:19:07.286Z,8
2023-01-22T12:20:02.141Z,8
2023-01-22T12:21:01.324Z,8
2023-01-22T12:22:01.466Z,8
2023-01-22T12:23:01.568Z,8
2023-01-22T12:24:01.613Z,8
2023-01-22T12:25:01.337Z,8
2023-01-22T12:26:00.863Z,9
2023-01-22T12:27:01.964Z,8
2023-01-22T12:29:01.977Z,8
2023-01-22T12:30:01.917Z,8
2023-01-22T12:31:01.864Z,8
2023-01-22T12:32:01.328Z,8
2023-01-22T12:33:03.216Z,8
2023-01-22T12:34:01.594Z,9
2023-01-22T12:35:01.539Z,9
2023-01-22T12:36:01.608Z,9
2023-01-22T12:37:01.359Z,11
2023-01-22T12:38:01.365Z,11
2023-01-22T12:39:02.208Z,9
2023-01-22T12:40:01.316Z,9
2023-01-22T12:41:01.335Z,10
2023-01-22T12:42:01.925Z,9
2023-01-22T12:43:01.330Z,9
2023-01-22T12:44:01.529Z,10
2023-01-22T12:45:02.145Z,8
2023-01-22T12:46:01.304Z,9
2023-01-22T12:47:01.328Z,10
2023-01-22T12:48:01.326Z,11
2023-01-22T12:49:01.945Z,9
2023-01-22T12:50:04.723Z,9
2023-01-22T12:51:01.999Z,10
2023-01-22T12:52:01.371Z,10
2023-01-22T12:53:01.905Z,9
2023-01-22T12:54:01.316Z,8
2023-01-22T12:55:01.454Z,8
2023-01-22T12:56:01.325Z,8
2023-01-22T12:57:01.322Z,9
2023-01-22T12:58:01.349Z,8
2023-01-22T12:59:01.344Z,7
2023-01-22T13:00:01.718Z,7
2023-01-22T13:01:01.444Z,8
2023-01-22T13:02:01.346Z,8
2023-01-22T13:03:01.705Z,7
2023-01-22T13:04:01.350Z,6
2023-01-22T13:05:02.348Z,7
2023-01-22T13:06:01.441Z,7
2023-01-22T13:07:01.392Z,6
2023-01-22T13:08:01.812Z,6
2023-01-22T13:09:02.081Z,6
2023-01-22T13:10:01.470Z,6
2023-01-22T13:11:01.318Z,5
2023-01-22T13:12:01.324Z,6
2023-01-22T13:13:01.328Z,5
2023-01-22T13:14:14.170Z,5
2023-01-22T13:15:01.307Z,6
2023-01-22T13:16:01.336Z,5
2023-01-22T13:17:01.972Z,6
2023-01-22T13:18:07.076Z,6
2023-01-22T13:19:01.563Z,5
2023-01-22T13:20:02.183Z,6
2023-01-22T13:21:01.936Z,7
2023-01-22T13:22:01.315Z,7
2023-01-22T13:23:01.346Z,6
2023-01-22T13:24:01.330Z,6
2023-01-22T13:25:02.166Z,6
2023-01-22T13:26:01.313Z,6
2023-01-22T13:27:01.472Z,6
2023-01-22T13:28:02.201Z,6
2023-01-22T13:29:01.365Z,6
2023-01-22T13:30:01.308Z,5
2023-01-22T13:31:01.438Z,5
2023-01-22T13:32:01.345Z,5
2023-01-22T13:33:00.176Z,5
2023-01-22T13:34:02.316Z,6
2023-01-22T13:36:02.120Z,5
2023-01-22T13:37:01.763Z,5
2023-01-22T13:38:01.532Z,5
2023-01-22T13:39:01.593Z,5
2023-01-22T13:40:01.305Z,5
2023-01-22T13:41:01.309Z,5
2023-01-22T13:42:01.870Z,5
2023-01-22T13:43:01.319Z,6
2023-01-22T13:44:02.089Z,5
2023-01-22T13:45:01.344Z,5
2023-01-22T13:46:01.873Z,6
2023-01-22T13:47:01.316Z,7
2023-01-22T13:48:03.830Z,5
2023-01-22T13:49:01.900Z,5
2023-01-22T13:50:01.570Z,5
2023-01-22T13:51:01.331Z,5
2023-01-22T13:52:01.314Z,6
2023-01-22T13:53:02.036Z,6
2023-01-22T13:54:01.920Z,6
2023-01-22T13:55:01.315Z,5
2023-01-22T13:56:01.852Z,6
2023-01-22T13:57:01.720Z,5
2023-01-22T13:58:01.332Z,5
2023-01-22T13:59:01.552Z,5
2023-01-22T14:00:01.444Z,5
2023-01-22T14:01:01.528Z,5
2023-01-22T14:02:01.468Z,6
2023-01-22T14:03:01.569Z,5
2023-01-22T14:04:02.245Z,5
2023-01-22T14:05:01.309Z,6
2023-01-22T14:06:01.309Z,5
2023-01-22T14:07:01.321Z,6
2023-01-22T14:08:02.230Z,6
2023-01-22T14:09:01.554Z,6
2023-01-22T14:10:02.196Z,7
2023-01-22T14:11:01.317Z,6
2023-01-22T14:12:01.425Z,6
2023-01-22T14:13:02.245Z,6
2023-01-22T14:14:01.319Z,6
2023-01-22T14:15:02.016Z,7
2023-01-22T14:16:02.113Z,6
2023-01-22T14:17:01.425Z,6
2023-01-22T14:18:01.345Z,6
2023-01-22T14:19:01.690Z,6
2023-01-22T14:20:01.561Z,6
2023-01-22T14:21:01.333Z,6
2023-01-22T14:22:01.299Z,6
2023-01-22T14:23:01.304Z,6
2023-01-22T14:24:01.786Z,6
2023-01-22T14:25:01.808Z,6
2023-01-22T14:26:01.697Z,6
2023-01-22T14:27:01.392Z,6
2023-01-22T14:28:01.376Z,7
2023-01-22T14:29:01.830Z,7
2023-01-22T14:30:01.381Z,6
2023-01-22T14:31:01.392Z,6
2023-01-22T14:32:01.813Z,6
2023-01-22T14:33:01.890Z,6
2023-01-22T14:34:01.308Z,6